sensor_id;sensor_type;location;lat;lon;timestamp;P1;durP1;ratioP1;P2;durP2;ratioP2
52104;SDS011;38103;42.776;23.112;2023-06-22T00:01:48;16.35;;;10.73;;
52104;SDS011;38103;42.776;23.112;2023-06-22T00:04:14;19.35;;;10.68;;
52104;SDS011;38103;42.776;23.112;2023-06-22T00:06:40;15.13;;;9.65;;
52104;SDS011;38103;42.776;23.112;2023-06-22T00:09:05;15.38;;;9.93;;
52104;SDS011;38103;42.776;23.112;2023-06-22T00:11:31;15.40;;;10.13;;
52104;SDS011;38103;42.776;23.112;2023-06-22T00:13:58;17.15;;;10.27;;
52104;SDS011;38103;42.776;23.112;2023-06-22T00:16:24;16.45;;;9.98;;
52104;SDS011;38103;42.776;23.112;2023-06-22T00:18:49;15.27;;;10.23;;
52104;SDS011;38103;42.776;23.112;2023-06-22T00:21:14;15.93;;;10.10;;
52104;SDS011;38103;42.776;23.112;2023-06-22T00:23:40;17.02;;;10.88;;
52104;SDS011;38103;42.776;23.112;2023-06-22T00:26:06;14.93;;;9.90;;
52104;SDS011;38103;42.776;23.112;2023-06-22T00:28:32;17.45;;;10.27;;
52104;SDS011;38103;42.776;23.112;2023-06-22T00:30:57;15.70;;;9.75;;
52104;SDS011;38103;42.776;23.112;2023-06-22T00:33:23;15.25;;;10.13;;
52104;SDS011;38103;42.776;23.112;2023-06-22T00:35:48;14.80;;;9.60;;
52104;SDS011;38103;42.776;23.112;2023-06-22T00:38:17;15.70;;;10.27;;
52104;SDS011;38103;42.776;23.112;2023-06-22T00:40:43;16.00;;;9.90;;
52104;SDS011;38103;42.776;23.112;2023-06-22T00:43:08;15.85;;;10.32;;
52104;SDS011;38103;42.776;23.112;2023-06-22T00:45:33;16.33;;;9.98;;
52104;SDS011;38103;42.776;23.112;2023-06-22T00:47:59;16.08;;;10.63;;
52104;SDS011;38103;42.776;23.112;2023-06-22T00:50:27;17.63;;;10.52;;
52104;SDS011;38103;42.776;23.112;2023-06-22T00:52:58;18.55;;;10.85;;
52104;SDS011;38103;42.776;23.112;2023-06-22T00:55:25;17.08;;;10.00;;
52104;SDS011;38103;42.776;23.112;2023-06-22T00:57:51;15.15;;;9.85;;
52104;SDS011;38103;42.776;23.112;2023-06-22T01:00:22;19.77;;;10.65;;
52104;SDS011;38103;42.776;23.112;2023-06-22T01:02:49;18.63;;;10.68;;
52104;SDS011;38103;42.776;23.112;2023-06-22T01:05:17;17.33;;;10.32;;
52104;SDS011;38103;42.776;23.112;2023-06-22T01:13:30;17.15;;;10.00;;
52104;SDS011;38103;42.776;23.112;2023-06-22T01:16:29;16.83;;;10.90;;
52104;SDS011;38103;42.776;23.112;2023-06-22T01:18:57;19.48;;;10.93;;
52104;SDS011;38103;42.776;23.112;2023-06-22T01:21:28;17.63;;;11.40;;
52104;SDS011;38103;42.776;23.112;2023-06-22T01:29:35;16.98;;;11.30;;
52104;SDS011;38103;42.776;23.112;2023-06-22T01:32:03;17.77;;;11.13;;
52104;SDS011;38103;42.776;23.112;2023-06-22T01:34:30;18.38;;;10.70;;
52104;SDS011;38103;42.776;23.112;2023-06-22T01:36:57;17.85;;;11.10;;
52104;SDS011;38103;42.776;23.112;2023-06-22T01:39:25;19.45;;;10.80;;
52104;SDS011;38103;42.776;23.112;2023-06-22T01:41:51;17.30;;;11.02;;
52104;SDS011;38103;42.776;23.112;2023-06-22T01:44:18;16.77;;;10.85;;
52104;SDS011;38103;42.776;23.112;2023-06-22T01:46:44;16.63;;;10.95;;
52104;SDS011;38103;42.776;23.112;2023-06-22T01:49:10;18.90;;;11.05;;
52104;SDS011;38103;42.776;23.112;2023-06-22T01:51:36;16.10;;;11.13;;
52104;SDS011;38103;42.776;23.112;2023-06-22T01:54:01;17.67;;;11.15;;
52104;SDS011;38103;42.776;23.112;2023-06-22T01:56:27;16.55;;;10.65;;
52104;SDS011;38103;42.776;23.112;2023-06-22T02:01:31;16.73;;;11.25;;
52104;SDS011;38103;42.776;23.112;2023-06-22T02:04:06;19.50;;;10.93;;
52104;SDS011;38103;42.776;23.112;2023-06-22T02:06:37;18.98;;;10.35;;
52104;SDS011;38103;42.776;23.112;2023-06-22T02:09:11;17.75;;;10.77;;
52104;SDS011;38103;42.776;23.112;2023-06-22T02:11:40;17.35;;;11.50;;
52104;SDS011;38103;42.776;23.112;2023-06-22T02:14:07;18.75;;;11.82;;
52104;SDS011;38103;42.776;23.112;2023-06-22T02:16:33;18.42;;;11.77;;
52104;SDS011;38103;42.776;23.112;2023-06-22T02:19:00;18.20;;;11.35;;
52104;SDS011;38103;42.776;23.112;2023-06-22T02:21:31;20.08;;;11.85;;
52104;SDS011;38103;42.776;23.112;2023-06-22T02:23:57;20.17;;;12.20;;
52104;SDS011;38103;42.776;23.112;2023-06-22T02:26:23;19.08;;;12.38;;
52104;SDS011;38103;42.776;23.112;2023-06-22T02:28:50;17.65;;;12.43;;
52104;SDS011;38103;42.776;23.112;2023-06-22T02:31:15;18.90;;;12.75;;
52104;SDS011;38103;42.776;23.112;2023-06-22T02:33:41;19.45;;;11.90;;
52104;SDS011;38103;42.776;23.112;2023-06-22T02:36:06;21.25;;;13.05;;
52104;SDS011;38103;42.776;23.112;2023-06-22T02:38:34;20.88;;;12.77;;
52104;SDS011;38103;42.776;23.112;2023-06-22T02:41:01;17.75;;;12.20;;
52104;SDS011;38103;42.776;23.112;2023-06-22T02:43:27;18.30;;;12.10;;
52104;SDS011;38103;42.776;23.112;2023-06-22T02:45:52;19.65;;;12.23;;
52104;SDS011;38103;42.776;23.112;2023-06-22T02:48:18;18.30;;;12.57;;
52104;SDS011;38103;42.776;23.112;2023-06-22T02:50:43;18.50;;;12.25;;
52104;SDS011;38103;42.776;23.112;2023-06-22T02:53:09;17.90;;;11.93;;
52104;SDS011;38103;42.776;23.112;2023-06-22T02:55:34;22.60;;;12.63;;
52104;SDS011;38103;42.776;23.112;2023-06-22T02:57:59;21.02;;;12.80;;
52104;SDS011;38103;42.776;23.112;2023-06-22T03:00:27;21.15;;;12.50;;
52104;SDS011;38103;42.776;23.112;2023-06-22T03:02:55;19.20;;;12.50;;
52104;SDS011;38103;42.776;23.112;2023-06-22T03:05:21;18.60;;;12.60;;
52104;SDS011;38103;42.776;23.112;2023-06-22T03:07:46;19.25;;;12.68;;
52104;SDS011;38103;42.776;23.112;2023-06-22T03:10:12;20.08;;;12.05;;
52104;SDS011;38103;42.776;23.112;2023-06-22T03:12:39;19.30;;;12.15;;
52104;SDS011;38103;42.776;23.112;2023-06-22T03:15:05;17.17;;;11.65;;
52104;SDS011;38103;42.776;23.112;2023-06-22T03:17:32;18.58;;;12.13;;
52104;SDS011;38103;42.776;23.112;2023-06-22T03:19:58;17.70;;;11.75;;
52104;SDS011;38103;42.776;23.112;2023-06-22T03:22:23;21.55;;;11.85;;
52104;SDS011;38103;42.776;23.112;2023-06-22T03:24:49;17.90;;;11.50;;
52104;SDS011;38103;42.776;23.112;2023-06-22T03:27:14;17.88;;;11.75;;
52104;SDS011;38103;42.776;23.112;2023-06-22T03:29:39;18.48;;;11.63;;
52104;SDS011;38103;42.776;23.112;2023-06-22T03:32:05;17.13;;;11.52;;
52104;SDS011;38103;42.776;23.112;2023-06-22T03:34:31;18.60;;;11.20;;
52104;SDS011;38103;42.776;23.112;2023-06-22T03:36:58;19.05;;;11.52;;
52104;SDS011;38103;42.776;23.112;2023-06-22T03:39:24;18.02;;;10.93;;
52104;SDS011;38103;42.776;23.112;2023-06-22T03:41:49;18.45;;;10.63;;
52104;SDS011;38103;42.776;23.112;2023-06-22T03:44:15;18.80;;;11.20;;
52104;SDS011;38103;42.776;23.112;2023-06-22T03:46:40;17.65;;;11.75;;
52104;SDS011;38103;42.776;23.112;2023-06-22T03:49:06;17.83;;;11.18;;
52104;SDS011;38103;42.776;23.112;2023-06-22T03:51:32;17.77;;;11.50;;
52104;SDS011;38103;42.776;23.112;2023-06-22T03:53:57;16.48;;;10.68;;
52104;SDS011;38103;42.776;23.112;2023-06-22T03:56:23;16.48;;;10.73;;
52104;SDS011;38103;42.776;23.112;2023-06-22T03:58:48;17.20;;;10.45;;
52104;SDS011;38103;42.776;23.112;2023-06-22T04:01:14;17.08;;;11.00;;
52104;SDS011;38103;42.776;23.112;2023-06-22T04:03:42;18.42;;;10.30;;
52104;SDS011;38103;42.776;23.112;2023-06-22T04:06:07;15.45;;;9.98;;
52104;SDS011;38103;42.776;23.112;2023-06-22T04:08:33;15.10;;;9.57;;
52104;SDS011;38103;42.776;23.112;2023-06-22T04:10:58;17.63;;;9.93;;
52104;SDS011;38103;42.776;23.112;2023-06-22T04:13:23;15.52;;;9.27;;
52104;SDS011;38103;42.776;23.112;2023-06-22T04:15:49;18.25;;;10.48;;
52104;SDS011;38103;42.776;23.112;2023-06-22T04:18:14;14.38;;;9.40;;
52104;SDS011;38103;42.776;23.112;2023-06-22T04:20:40;16.75;;;9.90;;
52104;SDS011;38103;42.776;23.112;2023-06-22T04:23:05;16.33;;;9.95;;
52104;SDS011;38103;42.776;23.112;2023-06-22T04:25:30;17.95;;;9.25;;
52104;SDS011;38103;42.776;23.112;2023-06-22T04:27:56;17.48;;;9.25;;
52104;SDS011;38103;42.776;23.112;2023-06-22T04:30:21;19.30;;;9.85;;
52104;SDS011;38103;42.776;23.112;2023-06-22T04:32:47;15.63;;;9.30;;
52104;SDS011;38103;42.776;23.112;2023-06-22T04:35:21;19.50;;;10.20;;
52104;SDS011;38103;42.776;23.112;2023-06-22T04:37:47;18.48;;;10.02;;
52104;SDS011;38103;42.776;23.112;2023-06-22T04:40:13;17.10;;;9.77;;
52104;SDS011;38103;42.776;23.112;2023-06-22T04:42:39;16.65;;;10.13;;
52104;SDS011;38103;42.776;23.112;2023-06-22T04:45:05;18.35;;;9.63;;
52104;SDS011;38103;42.776;23.112;2023-06-22T04:47:30;18.75;;;9.95;;
52104;SDS011;38103;42.776;23.112;2023-06-22T04:49:56;18.38;;;10.52;;
52104;SDS011;38103;42.776;23.112;2023-06-22T04:52:21;20.38;;;10.50;;
52104;SDS011;38103;42.776;23.112;2023-06-22T04:54:46;17.00;;;10.70;;
52104;SDS011;38103;42.776;23.112;2023-06-22T04:57:20;19.13;;;12.85;;
52104;SDS011;38103;42.776;23.112;2023-06-22T04:59:46;20.95;;;14.52;;
52104;SDS011;38103;42.776;23.112;2023-06-22T05:02:11;17.67;;;13.20;;
52104;SDS011;38103;42.776;23.112;2023-06-22T05:04:37;20.50;;;13.57;;
52104;SDS011;38103;42.776;23.112;2023-06-22T05:07:03;22.00;;;12.88;;
52104;SDS011;38103;42.776;23.112;2023-06-22T05:09:29;20.52;;;13.48;;
52104;SDS011;38103;42.776;23.112;2023-06-22T05:11:55;20.33;;;13.98;;
52104;SDS011;38103;42.776;23.112;2023-06-22T05:14:25;20.27;;;14.25;;
52104;SDS011;38103;42.776;23.112;2023-06-22T05:16:50;22.70;;;14.93;;
52104;SDS011;38103;42.776;23.112;2023-06-22T05:19:17;20.38;;;13.77;;
52104;SDS011;38103;42.776;23.112;2023-06-22T05:21:42;19.50;;;13.65;;
52104;SDS011;38103;42.776;23.112;2023-06-22T05:24:08;21.63;;;13.73;;
52104;SDS011;38103;42.776;23.112;2023-06-22T05:26:33;20.98;;;13.27;;
52104;SDS011;38103;42.776;23.112;2023-06-22T05:29:00;21.15;;;13.57;;
52104;SDS011;38103;42.776;23.112;2023-06-22T05:31:27;22.55;;;12.43;;
52104;SDS011;38103;42.776;23.112;2023-06-22T05:33:54;19.88;;;12.75;;
52104;SDS011;38103;42.776;23.112;2023-06-22T05:36:20;18.95;;;12.45;;
52104;SDS011;38103;42.776;23.112;2023-06-22T05:38:50;21.00;;;13.10;;
52104;SDS011;38103;42.776;23.112;2023-06-22T05:41:16;29.65;;;13.38;;
52104;SDS011;38103;42.776;23.112;2023-06-22T05:43:41;20.73;;;12.95;;
52104;SDS011;38103;42.776;23.112;2023-06-22T05:46:06;19.70;;;12.95;;
52104;SDS011;38103;42.776;23.112;2023-06-22T05:48:32;24.25;;;14.18;;
52104;SDS011;38103;42.776;23.112;2023-06-22T05:50:57;23.52;;;12.93;;
52104;SDS011;38103;42.776;23.112;2023-06-22T05:53:23;28.92;;;13.20;;
52104;SDS011;38103;42.776;23.112;2023-06-22T05:55:49;21.70;;;14.05;;
52104;SDS011;38103;42.776;23.112;2023-06-22T05:58:14;21.88;;;14.70;;
52104;SDS011;38103;42.776;23.112;2023-06-22T06:00:40;24.27;;;14.63;;
52104;SDS011;38103;42.776;23.112;2023-06-22T06:03:06;24.20;;;15.02;;
52104;SDS011;38103;42.776;23.112;2023-06-22T06:05:33;26.30;;;16.15;;
52104;SDS011;38103;42.776;23.112;2023-06-22T06:08:00;23.02;;;14.57;;
52104;SDS011;38103;42.776;23.112;2023-06-22T06:10:26;23.70;;;14.02;;
52104;SDS011;38103;42.776;23.112;2023-06-22T06:12:52;24.73;;;14.30;;
52104;SDS011;38103;42.776;23.112;2023-06-22T06:15:18;29.08;;;14.95;;
52104;SDS011;38103;42.776;23.112;2023-06-22T06:17:49;22.25;;;13.18;;
52104;SDS011;38103;42.776;23.112;2023-06-22T06:34:42;24.55;;;16.08;;
52104;SDS011;38103;42.776;23.112;2023-06-22T06:37:08;21.52;;;15.35;;
52104;SDS011;38103;42.776;23.112;2023-06-22T06:39:33;20.00;;;14.93;;
52104;SDS011;38103;42.776;23.112;2023-06-22T06:41:59;20.67;;;14.75;;
52104;SDS011;38103;42.776;23.112;2023-06-22T06:44:24;24.77;;;15.15;;
52104;SDS011;38103;42.776;23.112;2023-06-22T06:46:49;23.67;;;14.35;;
52104;SDS011;38103;42.776;23.112;2023-06-22T06:49:15;23.45;;;14.63;;
52104;SDS011;38103;42.776;23.112;2023-06-22T06:51:40;24.08;;;14.57;;
52104;SDS011;38103;42.776;23.112;2023-06-22T06:54:05;22.75;;;14.25;;
52104;SDS011;38103;42.776;23.112;2023-06-22T06:56:31;21.23;;;14.52;;
52104;SDS011;38103;42.776;23.112;2023-06-22T06:58:58;21.45;;;13.55;;
52104;SDS011;38103;42.776;23.112;2023-06-22T07:01:24;19.27;;;14.05;;
52104;SDS011;38103;42.776;23.112;2023-06-22T07:03:49;20.08;;;13.57;;
52104;SDS011;38103;42.776;23.112;2023-06-22T07:06:15;22.58;;;14.32;;
52104;SDS011;38103;42.776;23.112;2023-06-22T07:08:41;18.40;;;13.20;;
52104;SDS011;38103;42.776;23.112;2023-06-22T07:11:07;21.55;;;12.48;;
52104;SDS011;38103;42.776;23.112;2023-06-22T07:13:33;17.30;;;11.98;;
52104;SDS011;38103;42.776;23.112;2023-06-22T07:15:58;19.98;;;11.82;;
52104;SDS011;38103;42.776;23.112;2023-06-22T07:18:24;18.00;;;11.10;;
52104;SDS011;38103;42.776;23.112;2023-06-22T07:20:49;21.60;;;11.23;;
52104;SDS011;38103;42.776;23.112;2023-06-22T07:23:15;17.25;;;11.27;;
52104;SDS011;38103;42.776;23.112;2023-06-22T07:25:40;17.05;;;11.73;;
52104;SDS011;38103;42.776;23.112;2023-06-22T07:28:06;17.33;;;11.25;;
52104;SDS011;38103;42.776;23.112;2023-06-22T07:30:32;15.98;;;11.15;;
52104;SDS011;38103;42.776;23.112;2023-06-22T07:32:59;17.77;;;11.38;;
52104;SDS011;38103;42.776;23.112;2023-06-22T07:35:29;17.42;;;11.63;;
52104;SDS011;38103;42.776;23.112;2023-06-22T07:37:55;16.00;;;10.98;;
52104;SDS011;38103;42.776;23.112;2023-06-22T07:40:21;18.38;;;11.57;;
52104;SDS011;38103;42.776;23.112;2023-06-22T07:42:46;18.10;;;11.48;;
52104;SDS011;38103;42.776;23.112;2023-06-22T07:45:13;17.73;;;10.95;;
52104;SDS011;38103;42.776;23.112;2023-06-22T07:47:38;17.00;;;11.05;;
52104;SDS011;38103;42.776;23.112;2023-06-22T07:50:04;15.63;;;10.80;;
52104;SDS011;38103;42.776;23.112;2023-06-22T07:52:30;15.88;;;10.20;;
52104;SDS011;38103;42.776;23.112;2023-06-22T07:54:56;18.35;;;9.90;;
52104;SDS011;38103;42.776;23.112;2023-06-22T07:57:21;16.02;;;9.68;;
52104;SDS011;38103;42.776;23.112;2023-06-22T07:59:47;17.27;;;9.75;;
52104;SDS011;38103;42.776;23.112;2023-06-22T08:02:12;16.08;;;10.02;;
52104;SDS011;38103;42.776;23.112;2023-06-22T08:04:38;14.57;;;9.30;;
52104;SDS011;38103;42.776;23.112;2023-06-22T08:07:04;14.70;;;9.52;;
52104;SDS011;38103;42.776;23.112;2023-06-22T08:09:30;17.77;;;9.70;;
52104;SDS011;38103;42.776;23.112;2023-06-22T08:11:57;14.63;;;10.35;;
52104;SDS011;38103;42.776;23.112;2023-06-22T08:14:23;16.60;;;9.75;;
52104;SDS011;38103;42.776;23.112;2023-06-22T08:16:50;14.32;;;10.18;;
52104;SDS011;38103;42.776;23.112;2023-06-22T08:19:16;16.30;;;9.93;;
52104;SDS011;38103;42.776;23.112;2023-06-22T08:21:41;15.63;;;9.73;;
52104;SDS011;38103;42.776;23.112;2023-06-22T08:24:07;16.63;;;9.52;;
52104;SDS011;38103;42.776;23.112;2023-06-22T08:26:33;15.43;;;9.30;;
52104;SDS011;38103;42.776;23.112;2023-06-22T08:29:02;15.63;;;8.70;;
52104;SDS011;38103;42.776;23.112;2023-06-22T08:31:28;13.85;;;9.18;;
52104;SDS011;38103;42.776;23.112;2023-06-22T08:33:53;14.15;;;8.23;;
52104;SDS011;38103;42.776;23.112;2023-06-22T08:36:18;14.13;;;8.63;;
52104;SDS011;38103;42.776;23.112;2023-06-22T08:38:44;16.40;;;8.95;;
52104;SDS011;38103;42.776;23.112;2023-06-22T08:41:10;13.73;;;8.55;;
52104;SDS011;38103;42.776;23.112;2023-06-22T08:43:35;20.00;;;9.57;;
52104;SDS011;38103;42.776;23.112;2023-06-22T08:46:01;15.43;;;8.40;;
52104;SDS011;38103;42.776;23.112;2023-06-22T08:48:27;15.18;;;9.20;;
52104;SDS011;38103;42.776;23.112;2023-06-22T08:50:53;15.10;;;9.40;;
52104;SDS011;38103;42.776;23.112;2023-06-22T08:53:18;15.20;;;9.55;;
52104;SDS011;38103;42.776;23.112;2023-06-22T08:55:44;18.13;;;10.15;;
52104;SDS011;38103;42.776;23.112;2023-06-22T08:58:10;13.50;;;8.65;;
52104;SDS011;38103;42.776;23.112;2023-06-22T09:00:35;14.05;;;8.55;;
52104;SDS011;38103;42.776;23.112;2023-06-22T09:03:01;15.95;;;8.95;;
52104;SDS011;38103;42.776;23.112;2023-06-22T09:05:27;15.68;;;8.88;;
52104;SDS011;38103;42.776;23.112;2023-06-22T09:07:52;12.93;;;8.77;;
52104;SDS011;38103;42.776;23.112;2023-06-22T09:10:20;15.65;;;8.55;;
52104;SDS011;38103;42.776;23.112;2023-06-22T09:12:45;14.63;;;9.35;;
52104;SDS011;38103;42.776;23.112;2023-06-22T09:15:10;13.57;;;8.57;;
52104;SDS011;38103;42.776;23.112;2023-06-22T09:17:36;15.43;;;9.57;;
52104;SDS011;38103;42.776;23.112;2023-06-22T09:20:02;15.10;;;8.93;;
52104;SDS011;38103;42.776;23.112;2023-06-22T09:22:30;13.32;;;8.38;;
52104;SDS011;38103;42.776;23.112;2023-06-22T09:30:43;14.88;;;8.93;;
52104;SDS011;38103;42.776;23.112;2023-06-22T09:33:12;13.30;;;8.48;;
52104;SDS011;38103;42.776;23.112;2023-06-22T09:35:37;13.18;;;8.38;;
52104;SDS011;38103;42.776;23.112;2023-06-22T09:38:02;13.10;;;8.30;;
52104;SDS011;38103;42.776;23.112;2023-06-22T09:40:28;17.88;;;8.18;;
52104;SDS011;38103;42.776;23.112;2023-06-22T09:42:53;15.15;;;8.05;;
52104;SDS011;38103;42.776;23.112;2023-06-22T09:45:18;14.55;;;7.85;;
52104;SDS011;38103;42.776;23.112;2023-06-22T09:47:44;14.68;;;7.95;;
52104;SDS011;38103;42.776;23.112;2023-06-22T09:50:09;14.48;;;7.85;;
52104;SDS011;38103;42.776;23.112;2023-06-22T09:52:35;15.27;;;7.47;;
52104;SDS011;38103;42.776;23.112;2023-06-22T09:55:00;13.35;;;8.10;;
52104;SDS011;38103;42.776;23.112;2023-06-22T09:57:26;17.70;;;8.48;;
52104;SDS011;38103;42.776;23.112;2023-06-22T09:59:51;12.90;;;8.07;;
52104;SDS011;38103;42.776;23.112;2023-06-22T10:02:16;12.75;;;7.90;;
52104;SDS011;38103;42.776;23.112;2023-06-22T10:04:42;13.80;;;7.45;;
52104;SDS011;38103;42.776;23.112;2023-06-22T10:07:07;13.90;;;7.93;;
52104;SDS011;38103;42.776;23.112;2023-06-22T10:09:33;13.48;;;7.85;;
52104;SDS011;38103;42.776;23.112;2023-06-22T10:11:58;13.70;;;8.20;;
52104;SDS011;38103;42.776;23.112;2023-06-22T10:14:23;13.77;;;8.20;;
52104;SDS011;38103;42.776;23.112;2023-06-22T10:16:51;13.00;;;8.20;;
52104;SDS011;38103;42.776;23.112;2023-06-22T10:19:17;13.57;;;7.93;;
52104;SDS011;38103;42.776;23.112;2023-06-22T10:21:42;16.25;;;8.55;;
52104;SDS011;38103;42.776;23.112;2023-06-22T10:24:08;14.32;;;8.07;;
52104;SDS011;38103;42.776;23.112;2023-06-22T10:26:34;14.00;;;7.82;;
52104;SDS011;38103;42.776;23.112;2023-06-22T10:29:01;13.40;;;8.38;;
52104;SDS011;38103;42.776;23.112;2023-06-22T10:31:27;14.55;;;8.35;;
52104;SDS011;38103;42.776;23.112;2023-06-22T10:33:53;13.45;;;8.25;;
52104;SDS011;38103;42.776;23.112;2023-06-22T10:36:19;14.65;;;7.60;;
52104;SDS011;38103;42.776;23.112;2023-06-22T10:38:44;14.95;;;8.30;;
52104;SDS011;38103;42.776;23.112;2023-06-22T10:41:10;14.80;;;7.85;;
52104;SDS011;38103;42.776;23.112;2023-06-22T10:43:35;14.27;;;8.60;;
52104;SDS011;38103;42.776;23.112;2023-06-22T10:46:01;13.70;;;8.23;;
52104;SDS011;38103;42.776;23.112;2023-06-22T10:48:26;13.43;;;7.82;;
52104;SDS011;38103;42.776;23.112;2023-06-22T10:50:52;12.77;;;7.97;;
52104;SDS011;38103;42.776;23.112;2023-06-22T10:53:18;13.38;;;7.82;;
52104;SDS011;38103;42.776;23.112;2023-06-22T10:55:43;13.63;;;8.65;;
52104;SDS011;38103;42.776;23.112;2023-06-22T10:58:09;18.77;;;8.88;;
52104;SDS011;38103;42.776;23.112;2023-06-22T11:00:34;15.57;;;8.60;;
52104;SDS011;38103;42.776;23.112;2023-06-22T11:03:00;15.73;;;8.40;;
52104;SDS011;38103;42.776;23.112;2023-06-22T11:05:25;14.50;;;8.27;;
52104;SDS011;38103;42.776;23.112;2023-06-22T11:07:50;19.20;;;8.80;;
52104;SDS011;38103;42.776;23.112;2023-06-22T11:10:16;14.52;;;9.20;;
52104;SDS011;38103;42.776;23.112;2023-06-22T11:12:41;14.98;;;8.13;;
52104;SDS011;38103;42.776;23.112;2023-06-22T11:15:08;17.77;;;8.27;;
52104;SDS011;38103;42.776;23.112;2023-06-22T11:17:34;15.35;;;8.20;;
52104;SDS011;38103;42.776;23.112;2023-06-22T11:19:59;15.38;;;9.10;;
52104;SDS011;38103;42.776;23.112;2023-06-22T11:22:25;16.27;;;8.35;;
52104;SDS011;38103;42.776;23.112;2023-06-22T11:24:51;15.43;;;8.43;;
52104;SDS011;38103;42.776;23.112;2023-06-22T11:27:16;12.82;;;7.70;;
52104;SDS011;38103;42.776;23.112;2023-06-22T11:29:42;14.63;;;8.82;;
52104;SDS011;38103;42.776;23.112;2023-06-22T11:32:07;14.90;;;8.50;;
52104;SDS011;38103;42.776;23.112;2023-06-22T11:34:33;16.00;;;8.30;;
52104;SDS011;38103;42.776;23.112;2023-06-22T11:36:58;15.63;;;8.20;;
52104;SDS011;38103;42.776;23.112;2023-06-22T11:39:24;13.18;;;8.13;;
52104;SDS011;38103;42.776;23.112;2023-06-22T11:41:49;14.75;;;8.15;;
52104;SDS011;38103;42.776;23.112;2023-06-22T11:44:14;12.60;;;7.88;;
52104;SDS011;38103;42.776;23.112;2023-06-22T11:46:40;13.63;;;7.95;;
52104;SDS011;38103;42.776;23.112;2023-06-22T11:49:05;15.07;;;9.13;;
52104;SDS011;38103;42.776;23.112;2023-06-22T11:51:31;15.85;;;8.02;;
52104;SDS011;38103;42.776;23.112;2023-06-22T11:53:56;16.10;;;8.48;;
52104;SDS011;38103;42.776;23.112;2023-06-22T11:56:22;14.63;;;8.60;;
52104;SDS011;38103;42.776;23.112;2023-06-22T11:58:47;14.77;;;8.02;;
52104;SDS011;38103;42.776;23.112;2023-06-22T12:01:13;15.20;;;8.38;;
52104;SDS011;38103;42.776;23.112;2023-06-22T12:03:40;12.95;;;8.05;;
52104;SDS011;38103;42.776;23.112;2023-06-22T12:06:05;14.13;;;8.40;;
52104;SDS011;38103;42.776;23.112;2023-06-22T12:08:31;15.25;;;8.18;;
52104;SDS011;38103;42.776;23.112;2023-06-22T12:10:56;13.90;;;8.40;;
52104;SDS011;38103;42.776;23.112;2023-06-22T12:13:22;15.48;;;8.43;;
52104;SDS011;38103;42.776;23.112;2023-06-22T12:26:34;10.32;;;5.00;;
52104;SDS011;38103;42.776;23.112;2023-06-22T12:29:00;11.70;;;5.18;;
52104;SDS011;38103;42.776;23.112;2023-06-22T12:43:55;11.80;;;5.85;;
52104;SDS011;38103;42.776;23.112;2023-06-22T12:46:20;12.68;;;5.55;;
52104;SDS011;38103;42.776;23.112;2023-06-22T12:48:45;11.65;;;5.20;;
52104;SDS011;38103;42.776;23.112;2023-06-22T12:51:11;12.07;;;5.30;;
52104;SDS011;38103;42.776;23.112;2023-06-22T12:53:36;12.85;;;5.65;;
52104;SDS011;38103;42.776;23.112;2023-06-22T12:56:02;12.63;;;6.18;;
52104;SDS011;38103;42.776;23.112;2023-06-22T12:58:27;12.30;;;5.57;;
52104;SDS011;38103;42.776;23.112;2023-06-22T13:00:52;11.38;;;5.60;;
52104;SDS011;38103;42.776;23.112;2023-06-22T13:03:18;12.82;;;5.68;;
52104;SDS011;38103;42.776;23.112;2023-06-22T13:05:44;11.45;;;5.63;;
52104;SDS011;38103;42.776;23.112;2023-06-22T13:08:09;14.25;;;5.90;;
52104;SDS011;38103;42.776;23.112;2023-06-22T13:10:35;16.50;;;5.70;;
52104;SDS011;38103;42.776;23.112;2023-06-22T13:13:01;14.32;;;5.88;;
52104;SDS011;38103;42.776;23.112;2023-06-22T13:15:27;13.25;;;5.38;;
52104;SDS011;38103;42.776;23.112;2023-06-22T13:17:53;13.73;;;5.72;;
52104;SDS011;38103;42.776;23.112;2023-06-22T13:20:19;18.67;;;5.70;;
52104;SDS011;38103;42.776;23.112;2023-06-22T13:22:44;17.00;;;7.97;;
52104;SDS011;38103;42.776;23.112;2023-06-22T13:38:36;18.80;;;7.40;;
52104;SDS011;38103;42.776;23.112;2023-06-22T13:41:03;33.50;;;7.43;;
52104;SDS011;38103;42.776;23.112;2023-06-22T13:43:29;19.85;;;7.50;;
52104;SDS011;38103;42.776;23.112;2023-06-22T13:45:55;19.15;;;8.23;;
52104;SDS011;38103;42.776;23.112;2023-06-22T13:48:20;21.45;;;8.13;;
52104;SDS011;38103;42.776;23.112;2023-06-22T13:50:45;16.60;;;7.60;;
52104;SDS011;38103;42.776;23.112;2023-06-22T13:53:11;24.60;;;8.43;;
52104;SDS011;38103;42.776;23.112;2023-06-22T14:07:56;17.00;;;7.43;;
52104;SDS011;38103;42.776;23.112;2023-06-22T14:10:22;17.15;;;7.55;;
52104;SDS011;38103;42.776;23.112;2023-06-22T14:12:47;17.30;;;7.72;;
52104;SDS011;38103;42.776;23.112;2023-06-22T14:15:12;17.10;;;8.23;;
52104;SDS011;38103;42.776;23.112;2023-06-22T14:17:38;16.00;;;7.47;;
52104;SDS011;38103;42.776;23.112;2023-06-22T14:20:03;20.25;;;8.65;;
52104;SDS011;38103;42.776;23.112;2023-06-22T14:22:30;17.00;;;7.82;;
52104;SDS011;38103;42.776;23.112;2023-06-22T14:24:56;17.45;;;8.48;;
52104;SDS011;38103;42.776;23.112;2023-06-22T14:27:22;16.55;;;8.82;;
52104;SDS011;38103;42.776;23.112;2023-06-22T14:29:48;17.60;;;8.73;;
52104;SDS011;38103;42.776;23.112;2023-06-22T14:32:13;15.93;;;8.75;;
52104;SDS011;38103;42.776;23.112;2023-06-22T14:34:38;17.88;;;8.65;;
52104;SDS011;38103;42.776;23.112;2023-06-22T14:37:07;19.48;;;8.35;;
52104;SDS011;38103;42.776;23.112;2023-06-22T14:39:37;15.20;;;8.77;;
52104;SDS011;38103;42.776;23.112;2023-06-22T14:42:04;16.27;;;8.82;;
52104;SDS011;38103;42.776;23.112;2023-06-22T14:44:30;17.35;;;9.48;;
52104;SDS011;38103;42.776;23.112;2023-06-22T14:46:56;14.07;;;9.02;;
52104;SDS011;38103;42.776;23.112;2023-06-22T14:49:21;19.27;;;9.40;;
52104;SDS011;38103;42.776;23.112;2023-06-22T15:03:34;22.00;;;9.82;;
52104;SDS011;38103;42.776;23.112;2023-06-22T15:06:01;20.13;;;9.63;;
52104;SDS011;38103;42.776;23.112;2023-06-22T15:08:27;18.58;;;10.30;;
52104;SDS011;38103;42.776;23.112;2023-06-22T15:10:53;15.88;;;9.40;;
52104;SDS011;38103;42.776;23.112;2023-06-22T15:13:19;20.40;;;9.45;;
52104;SDS011;38103;42.776;23.112;2023-06-22T15:15:46;17.77;;;8.80;;
52104;SDS011;38103;42.776;23.112;2023-06-22T15:18:13;15.25;;;9.07;;
52104;SDS011;38103;42.776;23.112;2023-06-22T15:20:38;17.65;;;9.05;;
52104;SDS011;38103;42.776;23.112;2023-06-22T15:23:05;17.73;;;9.10;;
52104;SDS011;38103;42.776;23.112;2023-06-22T15:25:31;18.15;;;9.52;;
52104;SDS011;38103;42.776;23.112;2023-06-22T15:27:57;17.15;;;9.40;;
52104;SDS011;38103;42.776;23.112;2023-06-22T15:30:22;18.35;;;8.85;;
52104;SDS011;38103;42.776;23.112;2023-06-22T15:32:48;18.05;;;9.02;;
52104;SDS011;38103;42.776;23.112;2023-06-22T15:35:14;16.90;;;8.75;;
52104;SDS011;38103;42.776;23.112;2023-06-22T15:37:41;16.85;;;8.63;;
52104;SDS011;38103;42.776;23.112;2023-06-22T15:40:07;17.00;;;9.18;;
52104;SDS011;38103;42.776;23.112;2023-06-22T15:42:33;15.77;;;9.25;;
52104;SDS011;38103;42.776;23.112;2023-06-22T15:44:58;15.85;;;8.65;;